Portada
METAR-TAF:

METAR-TAF

Aeroports :

Salinas, Equador

latitud: 02-12-18S, longitud: 080-59-20W, altitud: 5 m

Observació

L'informe es va fer fa 48 minuts, a les 13:00 UTC
Vent 10 kt del Sud-Oest
Temperatura 21°C
Humitat 88%
Pressió 1012 hPa
Visibilitat 10 km o més
Cel cobert a una alçada de 1000 ft

METAR: SESA 081300Z 22010KT 9999 OVC010 21/19 Q1012 RMK A2989

Hora: 08:48 (13:48 UTC)


TAF: manca

Observacions i pronòstics meteorològics de més de 4000 aeroports (METAR i TAF).

Les estacions disponibles són els punts grocs i vermells al mapa.

Posi el ratolí al punt desitjat per veure el nom de l'estació.

Feu clic per veure les observacions i els pronòstics meteorològics.

Per canviar el mapa: feu clic els botons verds amb una creu de color negre per apropar; al botó verd amb un guió per allunyar la imatge; o en les fletxes verdes per a mapes adjacents.


METAR-TAF: